Time;durP1;ratioP1;P1;durP2;ratioP2;P2;SDS_P1;SDS_P2;PMS_P1;PMS_P2;Temp;Humidity;BMP_temperature;BMP_pressure;BME280_temperature;BME280_humidity;BME280_pressure;Samples;Min_cycle;Max_cycle;Signal;HPM_P1;HPM_P2
2022/02/11 00:00:39;;;;;;;11.95;5.47;;;;;;;4.13;83.23;100818.81;1658682;83;21089;-70
2022/02/11 00:05:59;;;;;;;7.65;3.85;;;;;;;4.13;83.29;100809.09;1660757;85;20918;-70
2022/02/11 00:08:04;;;;;;;7.30;4.08;;;;;;;4.13;83.29;100804.30;1657625;85;21006;-70
2022/02/11 00:10:30;;;;;;;9.75;4.60;;;;;;;4.13;83.32;100802.50;1661140;86;21565;-71
2022/02/11 00:12:57;;;;;;;9.70;5.62;;;;;;;4.13;83.37;100801.18;1660844;86;21069;-70
2022/02/11 00:15:37;;;;;;;8.83;3.95;;;;;;;4.13;83.37;100801.18;1669718;84;21387;-70
2022/02/11 00:17:53;;;;;;;11.57;4.53;;;;;;;4.13;83.39;100802.97;1659733;85;21086;-70
2022/02/11 00:20:19;;;;;;;7.05;4.90;;;;;;;4.12;83.42;100804.77;1669130;85;21099;-70
2022/02/11 00:22:45;;;;;;;6.72;4.20;;;;;;;4.11;83.44;100811.03;1675822;84;21470;-70
2022/02/11 00:25:11;;;;;;;6.15;3.87;;;;;;;4.12;83.45;100811.88;1660966;86;21714;-70
2022/02/11 00:30:46;;;;;;;5.72;3.45;;;;;;;4.11;83.50;100818.95;1660474;86;20905;-70
2022/02/11 00:33:06;;;;;;;4.45;3.12;;;;;;;4.12;83.49;100809.23;1656620;86;21930;-70
2022/02/11 00:35:42;;;;;;;5.95;3.50;;;;;;;4.12;83.52;100810.05;1658499;86;21023;-70
2022/02/11 00:38:17;;;;;;;3.62;2.77;;;;;;;4.12;83.51;100814.52;1659914;86;21487;-71
2022/02/11 00:45:48;;;;;;;6.47;3.42;;;;;;;4.13;83.55;100817.02;1645544;86;21102;-70
2022/02/11 01:04:15;;;;;;;6.03;3.25;;;;;;;4.11;83.66;100807.55;1632219;88;21065;-70
2022/02/11 01:06:41;;;;;;;9.90;3.47;;;;;;;4.11;83.68;100812.82;1632817;87;21466;-70
2022/02/11 01:09:12;;;;;;;9.30;3.05;;;;;;;4.10;83.69;100811.98;1632473;87;21038;-70
2022/02/11 01:11:51;;;;;;;8.65;3.25;;;;;;;4.11;83.69;100816.30;1632549;87;21577;-70
2022/02/11 01:14:16;;;;;;;6.87;3.17;;;;;;;4.11;83.71;100805.75;1632514;86;25780;-70
2022/02/11 01:16:51;;;;;;;7.35;3.30;;;;;;;4.11;83.72;100812.34;1662467;86;21026;-70
2022/02/11 01:21:46;;;;;;;6.92;2.98;;;;;;;4.13;83.75;100809.09;1662761;86;21668;-70
2022/02/11 01:29:28;;;;;;;7.25;4.15;;;;;;;4.13;83.78;100803.82;1664061;84;21400;-70
2022/02/11 01:31:56;;;;;;;8.53;4.90;;;;;;;4.14;83.82;100800.70;1660741;86;37874;-70
2022/02/11 01:34:14;;;;;;;12.68;6.80;;;;;;;4.14;83.80;100804.66;1659367;86;21023;-69
2022/02/11 01:42:51;;;;;;;5.28;3.70;;;;;;;4.15;83.86;100804.52;1664685;86;21070;-70
2022/02/11 01:44:27;;;;;;;6.30;4.00;;;;;;;4.14;83.86;100798.91;1661294;86;21110;-71
2022/02/11 01:52:16;;;;;;;8.13;3.72;;;;;;;4.16;83.90;100798.30;1664830;86;21583;-70
2022/02/11 01:55:57;;;;;;;9.90;4.35;;;;;;;4.16;83.91;100798.30;1662109;86;21066;-71
2022/02/11 01:57:13;;;;;;;8.13;4.15;;;;;;;4.15;83.93;100796.61;1646845;84;21487;-70
2022/02/11 02:00:03;;;;;;;12.45;4.85;;;;;;;4.15;83.94;100799.75;1664962;84;21075;-70
2022/02/11 02:13:42;;;;;;;22.05;8.28;;;;;;;4.13;84.01;100786.66;1665095;86;21502;-70
2022/02/11 02:23:56;;;;;;;16.65;5.95;;;;;;;4.13;84.06;100775.27;1665042;86;21007;-71
2022/02/11 02:34:49;;;;;;;10.15;5.33;;;;;;;4.11;84.13;100773.23;1664992;84;21071;-71
2022/02/11 02:58:14;;;;;;;8.95;4.87;;;;;;;4.00;84.30;100759.56;1669932;86;21086;-70
2022/02/11 03:49:58;;;;;;;8.40;4.30;;;;;;;3.85;84.72;100726.44;1664734;86;21264;-70
2022/02/11 04:56:36;;;;;;;4.83;1.80;;;;;;;2.47;85.05;100760.06;1691451;84;21247;-70
2022/02/11 05:01:45;;;;;;;7.33;1.82;;;;;;;2.51;84.99;100762.00;1666153;84;21506;-71
2022/02/11 05:04:11;;;;;;;5.35;2.00;;;;;;;2.51;84.99;100765.48;1664861;86;21113;-71
2022/02/11 05:06:37;;;;;;;5.30;2.37;;;;;;;2.56;84.96;100764.32;1664527;85;21211;-71
2022/02/11 05:09:03;;;;;;;7.05;2.37;;;;;;;2.56;84.96;100765.16;1664888;86;21209;-71
2022/02/11 05:11:30;;;;;;;6.95;2.30;;;;;;;2.59;84.92;100765.41;1664733;86;21078;-70
2022/02/11 05:13:56;;;;;;;5.35;2.60;;;;;;;2.57;84.94;100769.95;1664872;86;21082;-71
2022/02/11 05:16:22;;;;;;;5.78;2.35;;;;;;;2.55;84.91;100767.42;1664970;86;20967;-71
2022/02/11 05:18:48;;;;;;;7.95;3.62;;;;;;;2.57;84.90;100766.01;1664825;86;21081;-70
2022/02/11 05:21:14;;;;;;;10.65;3.33;;;;;;;2.64;84.92;100767.25;1665112;86;21133;-70
2022/02/11 05:23:40;;;;;;;8.85;5.55;;;;;;;2.70;84.93;100761.06;1664846;86;21002;-70
2022/02/11 05:26:06;;;;;;;18.37;9.15;;;;;;;2.77;84.92;100757.50;1665002;86;21022;-71
2022/02/11 05:28:32;;;;;;;27.90;11.65;;;;;;;2.80;84.91;100755.96;1667957;85;21212;-71
2022/02/11 05:30:58;;;;;;;33.08;15.08;;;;;;;2.79;84.92;100756.91;1687546;85;20907;-71
2022/02/11 05:33:24;;;;;;;54.93;24.57;;;;;;;2.82;84.90;100760.62;1687240;85;21205;-71
2022/02/11 05:35:51;;;;;;;38.80;17.52;;;;;;;2.84;84.89;100762.69;1685840;85;21022;-70
2022/02/11 05:38:17;;;;;;;28.17;12.82;;;;;;;2.77;84.88;100756.19;1665161;86;21623;-70
2022/02/11 05:40:44;;;;;;;14.15;7.65;;;;;;;2.75;84.86;100758.92;1665613;84;21512;-71
2022/02/11 05:43:11;;;;;;;15.08;6.72;;;;;;;2.75;84.79;100755.44;1665804;86;21032;-71
2022/02/11 05:45:37;;;;;;;23.70;9.28;;;;;;;2.73;84.76;100744.19;1665756;86;21189;-71
2022/02/11 05:48:04;;;;;;;20.30;6.50;;;;;;;2.67;84.76;100742.02;1665132;86;21065;-70
2022/02/11 05:50:31;;;;;;;15.70;6.15;;;;;;;2.67;84.74;100749.91;1665059;86;21039;-71
2022/02/11 05:52:57;;;;;;;11.25;4.97;;;;;;;2.68;84.71;100743.67;1664982;85;21086;-71
2022/02/11 05:55:23;;;;;;;10.50;4.03;;;;;;;2.70;84.71;100748.37;1665340;86;21587;-71
2022/02/11 05:57:49;;;;;;;8.90;2.83;;;;;;;2.71;84.68;100747.42;1664610;85;21939;-71
2022/02/11 06:00:16;;;;;;;10.72;3.72;;;;;;;2.74;84.68;100753.78;1665131;85;20968;-71
2022/02/11 06:02:42;;;;;;;26.15;9.85;;;;;;;2.76;84.65;100757.12;1664909;85;21035;-70
2022/02/11 06:05:08;;;;;;;6.08;1.95;;;;;;;2.76;84.68;100755.81;1664942;85;21084;-71
2022/02/11 06:07:34;;;;;;;5.67;2.22;;;;;;;2.73;84.69;100756.88;1664891;86;21079;-71
2022/02/11 06:10:00;;;;;;;7.50;1.72;;;;;;;2.71;84.71;100761.91;1665203;86;21706;-71
2022/02/11 06:12:27;;;;;;;3.10;1.90;;;;;;;2.67;84.70;100754.70;1665046;86;21062;-71
2022/02/11 06:14:53;;;;;;;3.08;2.12;;;;;;;2.69;84.72;100755.89;1665271;85;21055;-71
2022/02/11 06:17:20;;;;;;;6.67;3.40;;;;;;;2.65;84.73;100759.70;1665299;86;21078;-71
2022/02/11 06:19:48;;;;;;;5.25;2.70;;;;;;;2.64;84.75;100755.41;1665088;85;21370;-71
2022/02/11 06:22:16;;;;;;;2.90;1.98;;;;;;;2.62;84.77;100757.29;1665118;86;21161;-70
2022/02/11 06:24:42;;;;;;;5.72;1.98;;;;;;;2.58;84.72;100763.25;1638313;87;21006;-70
2022/02/11 06:27:08;;;;;;;3.83;1.67;;;;;;;2.55;84.69;100761.31;1638184;87;21017;-70
2022/02/11 06:29:35;;;;;;;9.90;4.28;;;;;;;2.55;84.70;100763.95;1638380;87;20919;-70
2022/02/11 06:32:04;;;;;;;8.03;3.60;;;;;;;2.57;84.69;100769.95;1660146;84;21034;-71
2022/02/11 06:34:31;;;;;;;7.83;2.77;;;;;;;2.57;84.63;100768.64;1665307;86;21208;-70
2022/02/11 06:36:57;;;;;;;5.17;2.17;;;;;;;2.59;84.66;100774.16;1696651;84;21048;-70
2022/02/11 06:39:25;;;;;;;5.50;2.45;;;;;;;2.59;84.63;100774.16;1696905;84;21076;-71
2022/02/11 06:41:54;;;;;;;13.78;3.95;;;;;;;2.57;84.62;100764.70;1696970;84;21520;-70
2022/02/11 06:44:20;;;;;;;39.63;15.30;;;;;;;2.60;84.63;100772.37;1696770;84;21106;-70
2022/02/11 06:46:47;;;;;;;22.82;7.67;;;;;;;2.61;84.62;100783.23;1673224;84;21129;-70
2022/02/11 06:49:13;;;;;;;6.12;2.30;;;;;;;2.58;84.65;100778.20;1700361;84;21478;-70
2022/02/11 06:51:39;;;;;;;18.52;10.05;;;;;;;2.58;84.67;100782.14;1701722;84;21420;-70
2022/02/11 06:54:06;;;;;;;16.02;7.97;;;;;;;2.55;84.66;100785.00;1701749;82;21079;-70
2022/02/11 06:56:32;;;;;;;6.58;3.90;;;;;;;2.51;84.65;100781.75;1695278;84;21122;-70
2022/02/11 06:58:58;;;;;;;5.25;2.87;;;;;;;2.49;84.65;100781.03;1701981;84;20994;-70
2022/02/11 07:01:24;;;;;;;15.25;6.42;;;;;;;2.47;84.66;100775.86;1702380;84;21010;-70
2022/02/11 07:03:50;;;;;;;30.20;13.45;;;;;;;2.48;84.64;100779.34;1701896;84;21031;-70
2022/02/11 07:06:16;;;;;;;43.70;19.15;;;;;;;2.49;84.63;100783.19;1701881;84;21441;-70
2022/02/11 07:08:42;;;;;;;30.35;12.45;;;;;;;2.49;84.59;100779.24;1702199;82;21079;-70
2022/02/11 07:11:09;;;;;;;22.42;8.03;;;;;;;2.48;84.57;100785.45;1701433;84;21161;-70
2022/02/11 07:13:35;;;;;;;10.03;4.12;;;;;;;2.48;84.58;100783.28;1701789;84;21139;-70
2022/02/11 07:16:02;;;;;;;5.62;2.67;;;;;;;2.49;84.62;100788.92;1701875;84;21091;-70
2022/02/11 07:18:28;;;;;;;5.28;2.87;;;;;;;2.50;84.60;100795.38;1701792;84;21089;-70
2022/02/11 07:20:54;;;;;;;5.17;2.02;;;;;;;2.50;84.58;100798.02;1702167;84;21014;-70
2022/02/11 07:23:20;;;;;;;4.30;1.77;;;;;;;2.50;84.61;100798.02;1702334;84;21176;-70
2022/02/11 07:25:46;;;;;;;7.90;2.83;;;;;;;2.51;84.62;100798.39;1702241;84;21089;-70
2022/02/11 07:28:13;;;;;;;8.68;3.25;;;;;;;2.51;84.62;100800.17;1701822;84;21009;-70
2022/02/11 07:30:39;;;;;;;9.03;3.52;;;;;;;2.52;84.63;100804.50;1671472;84;21530;-70
2022/02/11 07:33:05;;;;;;;12.65;3.95;;;;;;;2.51;84.64;100805.44;1669528;86;21043;-70
2022/02/11 07:35:32;;;;;;;20.75;6.70;;;;;;;2.49;84.67;100808.20;1660127;86;21148;-70
2022/02/11 07:37:58;;;;;;;19.80;7.90;;;;;;;2.48;84.68;100809.14;1669714;84;21098;-70
2022/02/11 07:40:24;;;;;;;25.48;10.08;;;;;;;2.46;84.67;100808.89;1660062;86;21063;-70
2022/02/11 07:42:52;;;;;;;26.62;12.35;;;;;;;2.45;84.67;100810.67;1669628;86;21046;-70
2022/02/11 07:45:19;;;;;;;27.05;12.88;;;;;;;2.45;84.68;100804.09;1616356;88;21587;-71
2022/02/11 07:47:46;;;;;;;25.72;13.20;;;;;;;2.46;84.68;100812.84;1642900;87;21059;-70
2022/02/11 07:50:12;;;;;;;20.17;9.93;;;;;;;2.44;84.68;100805.03;1642601;87;21043;-70
2022/02/11 07:52:38;;;;;;;15.55;9.45;;;;;;;2.45;84.71;100811.98;1642880;87;21577;-71
2022/02/11 07:55:05;;;;;;;8.40;4.00;;;;;;;2.44;84.71;100810.30;1639514;87;21061;-71
2022/02/11 07:57:31;;;;;;;8.50;3.50;;;;;;;2.45;84.75;100809.36;1633115;87;21064;-71
2022/02/11 08:00:03;;;;;;;7.30;3.25;;;;;;;2.47;84.78;100819.76;1633484;86;21105;-71
2022/02/11 08:02:25;;;;;;;10.60;5.80;;;;;;;2.45;84.80;100821.20;1632461;86;21660;-71
2022/02/11 08:04:51;;;;;;;15.80;7.72;;;;;;;2.46;84.80;100820.73;1633279;87;21629;-71
2022/02/11 08:07:17;;;;;;;18.75;10.13;;;;;;;2.50;84.86;100825.65;1633213;87;21050;-70
2022/02/11 08:09:43;;;;;;;14.85;11.18;;;;;;;2.50;84.86;100823.02;1633154;87;21597;-70
2022/02/11 08:12:11;;;;;;;14.80;10.30;;;;;;;2.51;84.89;100829.13;1642230;87;21515;-70
2022/02/11 08:14:37;;;;;;;12.13;8.23;;;;;;;2.53;84.93;100834.30;1633379;87;21035;-70
2022/02/11 08:17:04;;;;;;;14.68;7.75;;;;;;;2.51;84.92;100834.39;1633300;87;21086;-70
2022/02/11 08:19:29;;;;;;;17.15;8.13;;;;;;;2.49;84.92;100834.52;1632987;87;21042;-70
2022/02/11 08:21:56;;;;;;;19.12;9.20;;;;;;;2.49;84.94;100834.98;1633320;87;21058;-70
2022/02/11 08:24:22;;;;;;;18.42;10.18;;;;;;;2.51;84.98;100832.61;1633436;87;21487;-70
2022/02/11 08:26:48;;;;;;;9.90;7.90;;;;;;;2.55;85.01;100835.86;1606314;88;21539;-70
2022/02/11 08:29:14;;;;;;;18.20;8.33;;;;;;;2.58;85.04;100844.02;1614723;86;21561;-71
2022/02/11 08:31:41;;;;;;;13.08;5.40;;;;;;;2.58;85.05;100840.06;1664923;85;21074;-70
2022/02/11 08:34:08;;;;;;;15.72;9.78;;;;;;;2.57;85.08;100833.95;1664626;85;21592;-70
2022/02/11 08:36:34;;;;;;;35.98;21.57;;;;;;;2.59;85.08;100841.28;1664675;85;21553;-70
2022/02/11 08:39:00;;;;;;;16.25;5.40;;;;;;;2.64;85.12;100844.92;1664881;86;21124;-70
2022/02/11 08:41:26;;;;;;;9.23;5.60;;;;;;;2.68;85.18;100851.63;1664649;84;21031;-71
2022/02/11 08:43:52;;;;;;;13.10;6.95;;;;;;;2.70;85.20;100843.16;1635058;87;20944;-70
2022/02/11 08:46:28;;;;;;;12.55;6.53;;;;;;;2.71;85.24;100849.61;1634374;87;21036;-70
2022/02/11 08:48:51;;;;;;;19.02;10.63;;;;;;;2.72;85.27;100853.09;1663784;83;21173;-70
2022/02/11 08:51:17;;;;;;;28.95;16.45;;;;;;;2.72;85.32;100849.98;1683114;85;21037;-70
2022/02/11 08:53:43;;;;;;;18.52;11.78;;;;;;;2.72;85.33;100859.67;1687530;83;21521;-71
2022/02/11 08:56:09;;;;;;;31.50;16.00;;;;;;;2.74;85.36;100861.74;1625238;86;21061;-70
2022/02/11 08:58:36;;;;;;;24.18;11.20;;;;;;;2.74;85.38;100863.91;1619608;87;21029;-70
2022/02/11 09:01:02;;;;;;;14.68;7.20;;;;;;;2.76;85.42;100861.14;1608594;89;21174;-70
2022/02/11 09:03:28;;;;;;;17.42;7.55;;;;;;;2.76;85.43;100868.58;1608641;87;21049;-70
2022/02/11 09:05:55;;;;;;;12.78;5.90;;;;;;;2.79;85.48;100878.89;1652768;86;21054;-70
2022/02/11 09:08:22;;;;;;;13.03;4.60;;;;;;;2.81;85.53;100880.95;1667135;85;21020;-70
2022/02/11 09:10:48;;;;;;;19.48;6.55;;;;;;;2.81;85.54;100884.06;1665369;85;21034;-70
2022/02/11 09:13:14;;;;;;;27.48;11.45;;;;;;;2.79;85.58;100883.30;1665068;86;21150;-71
2022/02/11 09:15:41;;;;;;;13.93;6.17;;;;;;;2.79;85.59;100884.16;1664762;86;21019;-70
2022/02/11 09:18:07;;;;;;;17.52;7.15;;;;;;;2.77;85.61;100893.97;1664605;86;21324;-70
2022/02/11 09:20:33;;;;;;;15.25;6.10;;;;;;;2.75;85.60;100895.00;1664870;86;21075;-72
2022/02/11 09:23:00;;;;;;;11.78;5.30;;;;;;;2.74;85.65;100898.61;1665788;85;21526;-71
2022/02/11 09:25:26;;;;;;;13.45;6.37;;;;;;;2.73;85.65;100899.55;1664805;85;21550;-71
2022/02/11 09:27:52;;;;;;;11.80;5.05;;;;;;;2.73;85.67;100899.55;1664918;86;21006;-71
2022/02/11 09:30:20;;;;;;;9.30;5.17;;;;;;;2.71;85.71;100904.09;1676203;84;21087;-71
2022/02/11 09:32:51;;;;;;;10.85;5.67;;;;;;;2.68;85.72;100900.33;1699517;84;21011;-71
2022/02/11 09:35:17;;;;;;;15.08;6.90;;;;;;;2.70;85.76;100903.25;1699777;84;21114;-71
2022/02/11 09:37:43;;;;;;;27.65;11.18;;;;;;;2.73;85.76;100904.81;1699658;84;21025;-72
2022/02/11 09:40:12;;;;;;;34.55;11.97;;;;;;;2.73;85.77;100914.03;1671946;84;21155;-71
2022/02/11 09:42:38;;;;;;;37.03;12.97;;;;;;;2.70;85.81;100917.73;1665970;85;21016;-71
2022/02/11 09:45:06;;;;;;;38.00;13.68;;;;;;;2.67;85.82;100921.90;1665432;85;21543;-71
2022/02/11 09:47:33;;;;;;;49.83;18.00;;;;;;;2.67;85.85;100921.05;1665652;85;21032;-71
2022/02/11 09:49:59;;;;;;;62.00;19.02;;;;;;;2.70;85.85;100922.15;1665964;85;22458;-71
2022/02/11 09:52:27;;;;;;;55.52;20.23;;;;;;;2.70;85.85;100922.15;1665609;85;21080;-71
2022/02/11 09:55:31;;;;;;;85.10;34.08;;;;;;;2.69;85.86;100927.04;1666565;84;21064;-71
2022/02/11 09:57:21;;;;;;;58.35;22.17;;;;;;;2.74;85.91;100928.89;1710583;81;21075;-71
2022/02/11 09:59:48;;;;;;;84.62;34.58;;;;;;;2.74;85.92;100928.89;1702674;84;21061;-71
2022/02/11 10:02:16;;;;;;;45.95;21.23;;;;;;;2.73;85.92;100929.36;1693620;84;21511;-70
2022/02/11 10:04:55;;;;;;;25.02;10.32;;;;;;;2.75;85.94;100937.13;1664387;86;21052;-70
2022/02/11 10:07:21;;;;;;;30.20;14.73;;;;;;;2.75;85.96;100942.41;1636781;87;21083;-70
2022/02/11 10:09:48;;;;;;;31.75;18.12;;;;;;;2.73;85.97;100942.53;1661291;85;21075;-70
2022/02/11 10:12:14;;;;;;;29.18;18.17;;;;;;;2.71;86.02;100954.12;1663130;86;21020;-70
2022/02/11 10:14:41;;;;;;;19.95;9.58;;;;;;;2.68;86.01;100962.20;1643199;86;21152;-70
2022/02/11 10:17:10;;;;;;;12.15;7.67;;;;;;;2.60;86.01;100962.77;1658083;85;21477;-69
2022/02/11 10:19:54;;;;;;;16.52;6.33;;;;;;;2.53;86.01;100964.95;1670530;84;21651;-70
2022/02/11 10:22:23;;;;;;;11.45;4.53;;;;;;;2.47;86.03;100969.31;1696351;82;21062;-69
2022/02/11 10:24:49;;;;;;;8.87;5.00;;;;;;;2.40;86.05;100977.27;1700359;82;21038;-70
2022/02/11 10:27:23;;;;;;;9.53;4.97;;;;;;;2.37;86.04;100973.53;1707559;82;21792;-69
2022/02/11 10:29:51;;;;;;;12.55;4.85;;;;;;;2.33;86.03;100973.36;1708053;82;21044;-69
2022/02/11 10:32:17;;;;;;;8.30;4.97;;;;;;;2.28;86.04;100973.31;1709967;83;21554;-70
2022/02/11 10:34:52;;;;;;;9.65;5.25;;;;;;;2.19;86.06;100982.65;1690635;83;21543;-70
2022/02/11 10:37:18;;;;;;;9.23;5.85;;;;;;;2.17;86.09;100980.61;1708704;83;21042;-70
2022/02/11 10:39:52;;;;;;;9.68;5.00;;;;;;;2.12;86.08;100984.00;1701451;83;21259;-70
2022/02/11 10:42:18;;;;;;;10.50;5.17;;;;;;;2.09;86.07;100986.84;1667936;84;21523;-68
2022/02/11 10:44:44;;;;;;;12.45;8.60;;;;;;;2.07;86.08;100997.95;1667557;84;21776;-70
2022/02/11 10:47:12;;;;;;;11.03;7.58;;;;;;;2.08;86.09;100996.14;1669531;84;21117;-70
2022/02/11 10:49:44;;;;;;;9.80;7.15;;;;;;;2.08;86.10;101004.88;1656731;86;21100;-71
2022/02/11 10:52:26;;;;;;;26.50;13.22;;;;;;;2.06;86.13;101003.30;1635109;86;21524;-71
2022/02/11 10:54:56;;;;;;;22.60;15.35;;;;;;;2.08;86.16;101010.13;1679120;83;21005;-71
2022/02/11 10:57:27;;;;;;;10.55;6.05;;;;;;;2.09;86.16;101014.92;1681653;83;21523;-74
2022/02/11 10:59:54;;;;;;;19.42;11.22;;;;;;;1.98;86.17;100995.91;1668933;84;21104;-70
2022/02/11 11:02:21;;;;;;;12.35;8.83;;;;;;;2.08;86.19;101015.39;1649575;86;21118;-70
2022/02/11 11:04:49;;;;;;;13.38;7.45;;;;;;;2.09;86.21;101014.46;1692359;83;21904;-71
2022/02/11 11:07:25;;;;;;;10.25;5.95;;;;;;;2.10;86.22;101019.25;1657787;85;21121;-70
2022/02/11 11:09:53;;;;;;;10.25;5.47;;;;;;;2.10;86.26;101024.05;1657883;85;21029;-70
2022/02/11 11:12:19;;;;;;;8.53;5.83;;;;;;;2.12;86.28;101019.52;1672916;84;21036;-70
2022/02/11 11:14:46;;;;;;;10.60;4.75;;;;;;;2.16;86.29;101026.73;1708142;82;21066;-70
2022/02/11 11:17:12;;;;;;;8.33;4.53;;;;;;;2.23;86.32;101027.55;1706248;83;21021;-70
2022/02/11 11:19:38;;;;;;;5.12;3.30;;;;;;;2.28;86.34;101041.27;1703207;84;20966;-70
2022/02/11 11:22:15;;;;;;;5.15;3.05;;;;;;;2.33;86.36;101033.88;1707248;82;20970;-70
2022/02/11 11:25:01;;;;;;;6.37;3.60;;;;;;;2.32;86.39;101034.82;1734595;82;21315;-70
2022/02/11 11:27:50;;;;;;;6.47;4.47;;;;;;;2.27;86.39;101036.93;1713730;82;21090;-70
2022/02/11 11:30:37;;;;;;;4.65;2.90;;;;;;;2.28;86.44;101037.31;1684378;84;21209;-70
2022/02/11 11:33:12;;;;;;;9.20;5.30;;;;;;;2.30;86.47;101044.62;1677721;84;21051;-71
2022/02/11 11:35:48;;;;;;;7.37;3.72;;;;;;;2.30;86.47;101044.62;1726066;82;21006;-71
2022/02/11 11:38:21;;;;;;;10.03;3.47;;;;;;;2.33;86.50;101052.31;1685015;84;21014;-71
2022/02/11 11:41:16;;;;;;;10.98;4.00;;;;;;;2.34;86.52;101054.00;1668775;85;21575;-70
2022/02/11 11:43:50;;;;;;;9.68;3.17;;;;;;;2.37;86.52;101053.80;1674841;84;21504;-71
2022/02/11 11:46:22;;;;;;;9.80;4.28;;;;;;;2.37;86.53;101057.74;1669304;85;21071;-71
2022/02/11 11:49:01;;;;;;;15.25;6.78;;;;;;;2.41;86.53;101062.33;1668949;84;21078;-71
2022/02/11 11:51:37;;;;;;;14.53;6.58;;;;;;;2.44;86.53;101051.59;1706133;82;21070;-70
2022/02/11 11:54:21;;;;;;;19.77;9.60;;;;;;;2.42;86.54;101059.61;1670175;84;21479;-71
2022/02/11 11:57:07;;;;;;;10.58;4.87;;;;;;;2.48;86.55;101071.05;1664767;86;21206;-71
2022/02/11 11:59:44;;;;;;;10.75;5.53;;;;;;;2.48;86.52;101060.52;1664860;86;21041;-71
2022/02/11 12:02:26;;;;;;;15.55;8.03;;;;;;;2.51;86.54;101066.88;1701841;84;21047;-71
2022/02/11 12:04:56;;;;;;;7.97;5.10;;;;;;;2.57;86.54;101060.85;1695771;84;21034;-71
2022/02/11 12:07:29;;;;;;;12.20;7.03;;;;;;;2.59;86.51;101072.95;1702058;84;20994;-71
2022/02/11 12:09:57;;;;;;;11.85;7.65;;;;;;;2.58;86.49;101069.09;1718393;82;21171;-71
2022/02/11 12:12:26;;;;;;;6.80;5.37;;;;;;;2.55;86.50;101062.26;1734706;82;21530;-71
2022/02/11 12:15:02;;;;;;;7.00;3.87;;;;;;;2.64;86.53;101055.55;1714575;82;21573;-71
2022/02/11 12:17:28;;;;;;;4.15;2.75;;;;;;;2.80;86.54;101057.50;1701814;83;21017;-71
2022/02/11 12:19:54;;;;;;;3.70;2.70;;;;;;;2.80;86.52;101046.49;1702189;84;21026;-71
2022/02/11 12:22:24;;;;;;;4.15;2.60;;;;;;;2.80;86.50;101048.28;1702096;84;21507;-71
2022/02/11 12:27:40;;;;;;;4.87;3.22;;;;;;;2.83;86.50;101050.23;1659546;84;21556;-71
2022/02/11 12:30:16;;;;;;;4.28;2.80;;;;;;;2.89;86.51;101052.91;1669844;86;21072;-71
2022/02/11 12:32:47;;;;;;;4.78;2.60;;;;;;;2.99;86.49;101059.26;1622470;85;20995;-71
2022/02/11 12:35:19;;;;;;;4.08;2.95;;;;;;;3.05;86.47;101065.41;1637694;87;21224;-71
2022/02/11 12:37:46;;;;;;;5.35;2.42;;;;;;;3.00;86.45;101069.67;1637403;86;21555;-71
2022/02/11 12:40:16;;;;;;;6.50;5.08;;;;;;;2.97;86.42;101065.94;1637702;86;21042;-71
2022/02/11 12:42:44;;;;;;;4.08;3.67;;;;;;;2.98;86.41;101076.85;1637763;87;21079;-71
2022/02/11 12:45:13;;;;;;;14.50;11.08;;;;;;;2.95;86.38;101081.48;1651586;86;21056;-71
2022/02/11 12:47:40;;;;;;;9.60;4.77;;;;;;;2.90;86.34;101082.27;1664819;86;21895;-71
2022/02/11 12:50:10;;;;;;;10.38;6.80;;;;;;;2.96;86.35;101070.83;1664906;86;21376;-71
2022/02/11 12:52:37;;;;;;;21.55;9.78;;;;;;;3.04;86.33;101083.48;1669567;83;21509;-71
2022/02/11 12:55:22;;;;;;;11.43;5.45;;;;;;;3.19;86.36;101081.12;1672539;83;21061;-70
2022/02/11 12:57:53;;;;;;;7.95;3.62;;;;;;;3.28;86.33;101079.15;1698221;84;21604;-72
2022/02/11 13:00:24;;;;;;;10.82;4.92;;;;;;;3.34;86.30;101083.98;1698544;84;21183;-71
2022/02/11 13:02:55;;;;;;;19.30;7.75;;;;;;;3.33;86.24;101094.19;1663324;86;21509;-71
2022/02/11 13:05:20;;;;;;;24.18;9.70;;;;;;;3.30;86.17;101091.77;1661413;86;21474;-71
2022/02/11 13:07:49;;;;;;;29.30;11.12;;;;;;;3.25;86.13;101089.91;1647675;84;21653;-71
2022/02/11 13:10:29;;;;;;;20.92;8.40;;;;;;;3.20;86.08;101089.88;1659730;85;21093;-71
2022/02/11 13:13:08;;;;;;;10.58;4.60;;;;;;;3.29;86.03;101098.45;1664764;86;21316;-71
2022/02/11 13:15:36;;;;;;;10.20;5.00;;;;;;;3.28;85.97;101100.23;1647291;86;21026;-71
2022/02/11 13:18:18;;;;;;;9.93;4.72;;;;;;;3.25;85.91;101100.45;1661684;86;21018;-71
2022/02/11 13:20:49;;;;;;;9.68;4.78;;;;;;;3.27;85.87;101110.40;1667154;84;21040;-71
2022/02/11 13:23:19;;;;;;;15.53;8.35;;;;;;;3.29;85.84;101107.20;1672090;85;21538;-71
2022/02/11 13:25:45;;;;;;;19.10;10.18;;;;;;;3.31;85.81;101102.66;1675134;84;21804;-71
2022/02/11 13:28:13;;;;;;;21.85;11.10;;;;;;;3.35;85.80;101109.88;1665209;84;21546;-71
2022/02/11 13:30:43;;;;;;;16.90;11.80;;;;;;;3.34;85.79;101116.12;1663498;86;21092;-71
2022/02/11 13:33:31;;;;;;;14.75;7.83;;;;;;;3.29;85.73;101123.02;1631411;85;21070;-71
2022/02/11 13:36:11;;;;;;;22.17;9.90;;;;;;;3.26;85.69;101117.11;1630737;88;21538;-71
2022/02/11 13:38:40;;;;;;;13.10;6.75;;;;;;;3.18;85.66;101128.64;1630909;88;21871;-71
2022/02/11 13:41:10;;;;;;;5.80;3.37;;;;;;;3.13;85.61;101131.58;1630816;86;21148;-72
2022/02/11 13:43:53;;;;;;;;;;;;;;;3.12;85.60;101133.88;1633070;88;21022;-71
2022/02/11 13:46:31;;;;;;;7.35;3.55;;;;;;;3.08;85.55;101131.07;1650697;85;20185;-71
2022/02/11 13:49:04;;;;;;;9.88;4.45;;;;;;;3.03;85.53;101142.37;1656107;86;21549;-71
2022/02/11 13:51:31;;;;;;;16.60;5.40;;;;;;;3.02;85.51;101144.67;1662846;85;21088;-71
2022/02/11 13:53:58;;;;;;;10.20;3.75;;;;;;;2.99;85.47;101150.15;1655789;85;21024;-72
2022/02/11 13:56:42;;;;;;;13.85;5.50;;;;;;;2.99;85.46;101155.42;1636910;86;21040;-71
2022/02/11 13:59:15;;;;;;;8.88;6.55;;;;;;;2.98;85.42;101154.57;1656250;86;21096;-71
2022/02/11 14:01:44;;;;;;;20.12;12.30;;;;;;;3.03;85.40;101157.72;1655636;85;21029;-71
2022/02/11 14:04:18;;;;;;;13.93;9.75;;;;;;;3.12;85.37;101158.91;1660609;85;21884;-71
2022/02/11 14:06:53;;;;;;;22.55;12.90;;;;;;;3.26;85.38;101159.28;1659796;86;21545;-71
2022/02/11 14:09:40;;;;;;;17.85;11.50;;;;;;;3.33;85.35;101164.03;1667443;85;21056;-71
2022/02/11 14:12:18;;;;;;;15.55;8.05;;;;;;;3.35;85.34;101164.76;1656047;86;21041;-71
2022/02/11 14:14:59;;;;;;;18.82;10.32;;;;;;;3.37;85.35;101170.79;1610253;87;21074;-71
2022/02/11 14:17:29;;;;;;;26.62;14.00;;;;;;;3.36;85.33;101171.73;1650871;86;21801;-71
2022/02/11 14:19:55;;;;;;;22.40;10.30;;;;;;;3.39;85.32;101171.52;1657266;86;21090;-70
2022/02/11 14:22:21;;;;;;;13.20;7.87;;;;;;;3.40;85.30;101173.21;1662819;85;21068;-71
2022/02/11 14:24:47;;;;;;;10.63;5.40;;;;;;;3.40;85.28;101173.21;1661040;85;21064;-71
2022/02/11 14:27:15;;;;;;;20.48;8.75;;;;;;;3.43;85.26;101171.67;1666595;85;21577;-71
2022/02/11 14:29:41;;;;;;;16.57;8.90;;;;;;;3.47;85.23;101173.63;1663617;84;21247;-70
2022/02/11 14:32:08;;;;;;;25.68;10.68;;;;;;;3.50;85.19;101172.94;1674720;84;21079;-71
2022/02/11 14:34:34;;;;;;;14.13;6.08;;;;;;;3.52;85.16;101170.18;1677316;84;21033;-70
2022/02/11 14:37:00;;;;;;;14.50;7.33;;;;;;;3.50;85.12;101169.45;1680382;84;21024;-71
2022/02/11 14:39:26;;;;;;;14.95;8.83;;;;;;;3.43;85.11;101170.36;1668641;85;21022;-71
2022/02/11 14:41:55;;;;;;;17.00;10.28;;;;;;;3.36;85.09;101174.36;1665001;86;21175;-71
2022/02/11 14:44:23;;;;;;;23.38;15.00;;;;;;;3.31;85.09;101169.87;1664679;86;21368;-71
2022/02/11 14:46:52;;;;;;;53.33;26.00;;;;;;;3.25;85.10;101175.56;1664873;86;21649;-71
2022/02/11 14:49:19;;;;;;;53.40;24.35;;;;;;;3.23;85.04;101178.80;1664792;85;21261;-71
2022/02/11 14:51:49;;;;;;;45.60;20.35;;;;;;;3.21;85.03;101179.82;1664592;86;21125;-71
2022/02/11 14:54:15;;;;;;;53.02;23.40;;;;;;;3.21;85.00;101192.53;1664704;85;21672;-72
2022/02/11 14:56:42;;;;;;;75.50;31.02;;;;;;;3.20;84.98;101190.83;1664806;86;21045;-71
2022/02/11 14:59:08;;;;;;;64.97;23.42;;;;;;;3.22;84.94;101194.70;1665182;86;21040;-72
2022/02/11 15:01:35;;;;;;;81.40;32.67;;;;;;;3.25;84.91;101196.66;1664191;86;21040;-72
2022/02/11 15:04:01;;;;;;;41.37;15.70;;;;;;;3.26;84.88;101200.98;1665018;86;21070;-72
2022/02/11 15:06:27;;;;;;;146.87;58.87;;;;;;;3.29;84.86;101199.45;1663252;86;21567;-72